Time;durP1;ratioP1;P1;durP2;ratioP2;P2;SDS_P1;SDS_P2;PMS_P1;PMS_P2;Temp;Humidity;BMP_temperature;BMP_pressure;BME280_temperature;BME280_humidity;BME280_pressure;Samples;Min_cycle;Max_cycle;Signal;HPM_P1;HPM_P2
2023/03/08 00:01:09;;;;;;;22.92;9.82;;;10.60;64.90;;;;;;6270766;28;20028;-72
2023/03/08 00:04:11;;;;;;;20.35;10.27;;;10.60;64.90;;;;;;6253438;28;20136;-71
2023/03/08 00:07:12;;;;;;;27.30;11.40;;;10.60;64.90;;;;;;6235448;28;20028;-71
2023/03/08 00:10:13;;;;;;;25.77;10.30;;;10.60;64.90;;;;;;6270063;28;20692;-72
2023/03/08 00:13:14;;;;;;;27.80;11.77;;;10.60;65.00;;;;;;6228321;28;20033;-72
2023/03/08 00:16:15;;;;;;;25.52;10.90;;;10.60;65.00;;;;;;6245543;28;20069;-72
2023/03/08 00:19:16;;;;;;;27.45;11.27;;;10.60;65.10;;;;;;6244926;28;20026;-71
2023/03/08 00:22:20;;;;;;;26.40;11.43;;;10.70;65.10;;;;;;6227180;28;20387;-72
2023/03/08 00:25:21;;;;;;;24.60;11.27;;;10.70;65.00;;;;;;6226963;28;20033;-71
2023/03/08 00:28:22;;;;;;;22.80;11.38;;;10.70;65.00;;;;;;6244748;28;20030;-71
2023/03/08 00:31:25;;;;;;;24.20;11.20;;;10.70;65.10;;;;;;6227236;28;20108;-72
2023/03/08 00:34:27;;;;;;;23.92;11.05;;;10.70;65.20;;;;;;6226858;28;20431;-71
2023/03/08 00:37:29;;;;;;;24.67;10.70;;;10.70;65.00;;;;;;6226169;28;20056;-72
2023/03/08 00:40:30;;;;;;;25.08;11.27;;;10.70;65.10;;;;;;6226809;28;20107;-72
2023/03/08 00:43:31;;;;;;;22.00;9.60;;;10.70;65.00;;;;;;6244379;28;20018;-72
2023/03/08 00:46:33;;;;;;;20.63;9.35;;;10.70;64.90;;;;;;6244338;28;20033;-71
2023/03/08 00:49:34;;;;;;;22.05;9.45;;;10.70;64.70;;;;;;6243608;28;20029;-72
2023/03/08 00:52:35;;;;;;;19.80;9.88;;;10.70;64.80;;;;;;6244724;28;20036;-72
2023/03/08 00:55:36;;;;;;;24.40;11.13;;;10.60;64.70;;;;;;6244790;28;20033;-73
2023/03/08 00:58:39;;;;;;;23.42;9.98;;;10.60;64.70;;;;;;6209943;28;20092;-71
2023/03/08 01:01:40;;;;;;;23.73;10.13;;;10.50;65.00;;;;;;6244649;28;20375;-72
2023/03/08 01:04:42;;;;;;;22.80;9.90;;;10.50;65.10;;;;;;6244406;28;20022;-72
2023/03/08 01:07:43;;;;;;;31.27;11.13;;;10.40;65.10;;;;;;6232193;28;20051;-72
2023/03/08 01:10:49;;;;;;;23.08;10.23;;;10.40;65.30;;;;;;6225899;28;20385;-72
2023/03/08 01:13:51;;;;;;;29.33;12.18;;;10.40;65.30;;;;;;6225832;28;20462;-71
2023/03/08 01:16:52;;;;;;;28.48;10.50;;;10.40;65.30;;;;;;6225330;28;20339;-71
2023/03/08 01:19:53;;;;;;;24.08;11.50;;;10.40;65.40;;;;;;6220802;28;20502;-73
2023/03/08 01:22:54;;;;;;;23.50;10.88;;;10.40;65.30;;;;;;6202097;28;20044;-70
2023/03/08 01:26:00;;;;;;;26.02;9.85;;;10.30;65.40;;;;;;6201972;28;20034;-72
2023/03/08 01:29:01;;;;;;;26.17;10.95;;;10.40;65.50;;;;;;6220549;28;20057;-73
2023/03/08 01:32:02;;;;;;;21.70;10.50;;;10.40;65.50;;;;;;6238706;28;20025;-71
2023/03/08 01:35:04;;;;;;;24.30;11.25;;;10.30;65.40;;;;;;6266443;28;20174;-72
2023/03/08 01:38:05;;;;;;;23.30;10.43;;;10.40;65.50;;;;;;6247804;28;20165;-70
2023/03/08 01:41:11;;;;;;;22.98;10.23;;;10.30;65.40;;;;;;6225969;28;20040;-72
2023/03/08 01:44:17;;;;;;;23.48;11.02;;;10.30;65.60;;;;;;6243340;28;20055;-71
2023/03/08 01:47:22;;;;;;;22.70;9.63;;;10.30;65.70;;;;;;6224827;28;20047;-72
2023/03/08 01:50:48;;;;;;;25.80;10.38;;;10.30;65.80;;;;;;6216791;28;20088;-71
2023/03/08 01:53:51;;;;;;;22.88;10.52;;;10.30;66.00;;;;;;6218847;28;20522;-72
2023/03/08 01:56:57;;;;;;;24.13;9.80;;;10.20;66.00;;;;;;6184997;28;20111;-72
2023/03/08 02:00:07;;;;;;;19.75;10.10;;;10.20;66.20;;;;;;6219280;28;20022;-72
2023/03/08 02:03:14;;;;;;;20.77;9.52;;;10.20;66.40;;;;;;6223552;28;20040;-71
2023/03/08 02:06:16;;;;;;;20.02;9.85;;;10.10;66.50;;;;;;6241788;28;20105;-73
2023/03/08 02:09:18;;;;;;;21.98;9.75;;;10.10;66.60;;;;;;6225336;28;20371;-72
2023/03/08 02:12:21;;;;;;;26.35;11.30;;;10.10;66.70;;;;;;6224960;28;20036;-72
2023/03/08 02:15:22;;;;;;;23.48;8.75;;;10.10;66.70;;;;;;6225182;28;20080;-72
2023/03/08 02:18:26;;;;;;;23.50;10.00;;;10.10;66.60;;;;;;6208638;28;20026;-72
2023/03/08 02:21:30;;;;;;;20.58;9.48;;;10.10;66.50;;;;;;6243160;28;20414;-71
2023/03/08 02:24:31;;;;;;;25.55;9.93;;;10.10;66.40;;;;;;6209001;28;20080;-73
2023/03/08 02:27:32;;;;;;;26.67;11.05;;;10.20;66.50;;;;;;6225092;28;20486;-72
2023/03/08 02:30:37;;;;;;;22.88;8.82;;;10.20;66.50;;;;;;6229258;28;20085;-71
2023/03/08 02:33:38;;;;;;;24.80;9.15;;;10.10;66.40;;;;;;6230303;28;20363;-72
2023/03/08 02:36:39;;;;;;;24.05;9.65;;;10.20;66.40;;;;;;6230139;28;20025;-72
2023/03/08 02:39:40;;;;;;;20.33;8.75;;;10.20;66.50;;;;;;6247787;28;20425;-70
2023/03/08 02:42:41;;;;;;;19.70;8.32;;;10.20;66.40;;;;;;6230337;28;20034;-71
2023/03/08 02:45:41;;;;;;;17.27;8.57;;;10.20;66.50;;;;;;6229734;28;20060;-73
2023/03/08 02:48:44;;;;;;;23.23;9.55;;;10.20;66.50;;;;;;6234722;28;20033;-72
2023/03/08 02:51:46;;;;;;;21.80;9.45;;;10.20;66.30;;;;;;6216285;28;20125;-72
2023/03/08 02:54:48;;;;;;;25.00;11.02;;;10.20;66.10;;;;;;6225106;28;20030;-71
2023/03/08 02:57:49;;;;;;;21.70;9.85;;;10.20;66.10;;;;;;6216550;28;20491;-72
2023/03/08 03:00:52;;;;;;;22.02;8.98;;;10.20;66.00;;;;;;6206835;28;20440;-71
2023/03/08 03:03:54;;;;;;;25.95;9.98;;;10.20;65.90;;;;;;6216162;28;20030;-71
2023/03/08 03:06:55;;;;;;;20.98;9.63;;;10.10;65.80;;;;;;6247130;28;20021;-72
2023/03/08 03:09:56;;;;;;;25.83;10.20;;;10.20;65.80;;;;;;6247431;28;20022;-72
2023/03/08 03:12:57;;;;;;;18.60;8.90;;;10.20;66.60;;;;;;6229262;28;20041;-72
2023/03/08 03:16:12;;;;;;;12.52;6.47;;;10.20;65.90;;;;;;6229249;28;20392;-73
2023/03/08 03:19:13;;;;;;;22.98;7.82;;;10.20;66.00;;;;;;6228467;28;20124;-71
2023/03/08 03:22:14;;;;;;;12.75;5.88;;;10.30;65.90;;;;;;6228577;28;20025;-71
2023/03/08 03:25:15;;;;;;;11.18;6.03;;;10.30;65.80;;;;;;6247406;28;20183;-71
2023/03/08 03:28:19;;;;;;;10.43;4.63;;;10.40;65.70;;;;;;6228479;28;20492;-71
2023/03/08 03:31:23;;;;;;;11.80;4.38;;;10.50;65.50;;;;;;6228417;28;20033;-72
2023/03/08 03:34:24;;;;;;;11.38;4.28;;;10.50;65.10;;;;;;6228463;28;20029;-72
2023/03/08 03:37:26;;;;;;;4.38;2.75;;;10.60;64.80;;;;;;6228403;28;20033;-73
2023/03/08 03:40:27;;;;;;;10.13;4.05;;;10.60;64.40;;;;;;6229820;28;20025;-71
2023/03/08 03:43:34;;;;;;;6.75;2.97;;;10.70;63.90;;;;;;6253264;28;20489;-72
2023/03/08 03:46:35;;;;;;;7.45;2.85;;;10.70;63.60;;;;;;6236563;28;20354;-71
2023/03/08 03:49:39;;;;;;;5.35;2.65;;;10.80;63.40;;;;;;6230664;28;20033;-71
2023/03/08 03:52:40;;;;;;;6.13;3.00;;;10.90;62.90;;;;;;6228891;28;20057;-72
2023/03/08 03:55:41;;;;;;;4.85;2.90;;;10.90;62.50;;;;;;6246826;28;20164;-72
2023/03/08 03:58:43;;;;;;;7.70;2.70;;;10.90;62.10;;;;;;6228930;28;20112;-71
2023/03/08 04:01:45;;;;;;;5.78;2.60;;;10.90;62.10;;;;;;6233151;28;20026;-71
2023/03/08 04:04:58;;;;;;;5.38;2.78;;;10.90;62.10;;;;;;6245510;28;20033;-71
2023/03/08 04:08:03;;;;;;;4.88;2.40;;;11.00;62.00;;;;;;6238565;28;20033;-71
2023/03/08 04:11:09;;;;;;;4.53;2.38;;;11.00;61.60;;;;;;6227895;28;20041;-73
2023/03/08 04:14:10;;;;;;;5.00;2.60;;;11.00;61.10;;;;;;6227815;28;20430;-71
2023/03/08 04:17:11;;;;;;;3.80;1.92;;;11.00;61.00;;;;;;6227018;28;20034;-71
2023/03/08 04:20:18;;;;;;;3.75;1.90;;;11.00;60.50;;;;;;6227054;28;20663;-73
2023/03/08 04:23:26;;;;;;;3.80;2.13;;;11.00;60.50;;;;;;6227136;28;20080;-72
2023/03/08 04:26:27;;;;;;;4.90;2.08;;;11.00;60.40;;;;;;6244593;28;20025;-72
2023/03/08 04:29:28;;;;;;;3.38;1.40;;;11.10;60.40;;;;;;6244324;28;20430;-72
2023/03/08 04:32:33;;;;;;;3.60;1.63;;;11.10;60.00;;;;;;6226797;28;20402;-71
2023/03/08 04:35:34;;;;;;;3.35;2.08;;;11.10;59.70;;;;;;6226524;28;20034;-72
2023/03/08 04:38:37;;;;;;;3.80;1.90;;;11.10;59.70;;;;;;6244481;28;20350;-70
2023/03/08 04:41:39;;;;;;;3.67;1.98;;;11.10;59.70;;;;;;6251663;28;20025;-72
2023/03/08 04:44:48;;;;;;;2.40;1.48;;;11.20;59.70;;;;;;6251535;28;20029;-72
2023/03/08 04:47:53;;;;;;;2.75;1.75;;;11.20;59.60;;;;;;6227285;28;20077;-71
2023/03/08 04:50:57;;;;;;;3.28;1.85;;;11.20;59.70;;;;;;6226921;28;20037;-71
2023/03/08 04:53:59;;;;;;;7.47;2.10;;;11.30;60.50;;;;;;6226918;28;20687;-71
2023/03/08 04:57:00;;;;;;;3.60;1.73;;;11.30;59.70;;;;;;6226513;28;20044;-71
2023/03/08 05:00:04;;;;;;;3.47;1.73;;;11.30;59.60;;;;;;6210107;28;20048;-71
2023/03/08 05:03:09;;;;;;;;;;;11.30;59.70;;;;;;6211205;28;20021;-71
2023/03/08 05:06:12;;;;;;;4.68;2.05;;;11.30;59.80;;;;;;6244773;28;20323;-71
2023/03/08 05:09:14;;;;;;;3.38;1.80;;;11.30;59.60;;;;;;6226198;28;20449;-72
2023/03/08 05:12:17;;;;;;;5.22;2.22;;;11.30;59.70;;;;;;6226396;28;20036;-72
2023/03/08 05:15:25;;;;;;;4.20;1.98;;;11.40;59.70;;;;;;6210418;28;20029;-72
2023/03/08 05:18:26;;;;;;;3.30;1.50;;;11.40;59.60;;;;;;6225353;28;20030;-71
2023/03/08 05:21:27;;;;;;;4.53;2.28;;;11.40;59.40;;;;;;6243740;28;20027;-72
2023/03/08 05:24:33;;;;;;;7.32;2.40;;;11.40;59.40;;;;;;6225575;28;20031;-71
2023/03/08 05:27:39;;;;;;;4.20;2.70;;;11.40;59.40;;;;;;6225484;28;20026;-72
2023/03/08 05:30:43;;;;;;;7.88;3.20;;;11.20;59.10;;;;;;6225547;28;20139;-72
2023/03/08 05:33:48;;;;;;;6.00;3.03;;;11.40;59.20;;;;;;6234063;28;20043;-71
2023/03/08 05:36:51;;;;;;;5.60;3.13;;;11.30;59.40;;;;;;6234503;28;20084;-71
2023/03/08 05:39:53;;;;;;;5.15;2.88;;;11.30;59.60;;;;;;6267527;28;20033;-72
2023/03/08 05:42:56;;;;;;;5.53;2.58;;;11.30;59.70;;;;;;6249874;28;20369;-72
2023/03/08 05:46:05;;;;;;;5.45;2.45;;;11.30;59.60;;;;;;6249628;28;20111;-72
2023/03/08 05:49:07;;;;;;;5.63;2.77;;;11.40;59.60;;;;;;6231018;28;20044;-72
2023/03/08 05:52:09;;;;;;;5.38;2.45;;;11.40;59.50;;;;;;6225106;28;20041;-72
2023/03/08 05:55:12;;;;;;;6.35;3.05;;;11.40;59.60;;;;;;6225013;28;20052;-71
2023/03/08 05:58:14;;;;;;;7.95;4.18;;;11.40;59.60;;;;;;6224896;28;20088;-71
2023/03/08 06:01:21;;;;;;;8.57;3.67;;;11.50;59.60;;;;;;6225237;28;20044;-71
2023/03/08 06:04:22;;;;;;;9.00;3.83;;;11.40;59.60;;;;;;6225452;28;20029;-71
2023/03/08 06:07:25;;;;;;;8.85;3.30;;;11.40;59.70;;;;;;6225120;28;20180;-72
2023/03/08 06:10:30;;;;;;;7.53;3.55;;;11.40;59.70;;;;;;6224950;28;20155;-72
2023/03/08 06:13:33;;;;;;;10.57;3.63;;;11.50;59.80;;;;;;6225041;28;20057;-72
2023/03/08 06:16:34;;;;;;;7.70;3.60;;;11.40;59.80;;;;;;6242718;28;20512;-73
2023/03/08 06:19:35;;;;;;;8.55;3.92;;;11.40;60.00;;;;;;6216827;28;20041;-73
2023/03/08 06:22:36;;;;;;;9.38;4.28;;;11.40;60.10;;;;;;6201598;28;20036;-71
2023/03/08 06:25:37;;;;;;;9.18;4.22;;;11.40;60.20;;;;;;6219288;28;20030;-72
2023/03/08 06:28:39;;;;;;;8.02;3.85;;;11.30;60.30;;;;;;6223329;28;20510;-73
2023/03/08 06:31:42;;;;;;;8.63;3.58;;;11.30;60.30;;;;;;6229618;28;20100;-73
2023/03/08 06:34:43;;;;;;;12.57;4.63;;;11.20;60.80;;;;;;6249228;28;20090;-72
2023/03/08 06:37:45;;;;;;;11.85;4.10;;;11.10;61.20;;;;;;6248498;28;20032;-72
2023/03/08 06:40:46;;;;;;;7.97;4.50;;;11.00;61.60;;;;;;6249619;28;20036;-72
2023/03/08 06:43:47;;;;;;;8.57;4.40;;;10.90;61.90;;;;;;6249542;28;20470;-72
2023/03/08 06:46:49;;;;;;;7.97;4.18;;;10.90;62.10;;;;;;6266923;28;20055;-72
2023/03/08 06:49:52;;;;;;;10.13;3.47;;;10.90;62.20;;;;;;6209532;28;20374;-73
2023/03/08 06:52:54;;;;;;;11.15;4.78;;;10.90;62.30;;;;;;6225206;28;20376;-72
2023/03/08 06:56:06;;;;;;;9.40;4.43;;;10.90;62.70;;;;;;6224031;28;20490;-73
2023/03/08 06:59:08;;;;;;;7.22;3.53;;;10.90;62.80;;;;;;6240338;28;20367;-71
2023/03/08 07:02:10;;;;;;;8.40;4.25;;;10.90;62.80;;;;;;6242026;28;20017;-73
2023/03/08 07:05:11;;;;;;;7.95;3.42;;;10.90;62.80;;;;;;6224639;28;20435;-72
2023/03/08 07:08:12;;;;;;;11.55;3.88;;;11.00;62.80;;;;;;6241672;28;20120;-73
2023/03/08 07:11:12;;;;;;;7.97;4.15;;;11.00;62.70;;;;;;6242147;28;20473;-73
2023/03/08 07:14:14;;;;;;;13.93;4.55;;;11.10;62.80;;;;;;6242155;28;20417;-73
2023/03/08 07:17:15;;;;;;;10.07;3.83;;;11.10;62.80;;;;;;6244707;28;20041;-72
2023/03/08 07:20:19;;;;;;;7.63;4.20;;;11.10;62.80;;;;;;6220334;28;20052;-72
2023/03/08 07:23:20;;;;;;;9.15;3.95;;;11.10;62.70;;;;;;6204925;28;20022;-71
2023/03/08 07:26:21;;;;;;;9.35;3.90;;;11.20;62.80;;;;;;6224766;28;20056;-73
2023/03/08 07:29:22;;;;;;;7.45;3.58;;;11.10;62.80;;;;;;6271160;28;20029;-73
2023/03/08 07:32:27;;;;;;;14.45;4.68;;;11.10;63.00;;;;;;6271476;28;20494;-72
2023/03/08 07:35:28;;;;;;;11.95;4.78;;;11.10;63.20;;;;;;6271727;28;20029;-72
2023/03/08 07:38:30;;;;;;;10.88;4.32;;;11.10;63.40;;;;;;6270845;28;20037;-73
2023/03/08 07:41:33;;;;;;;9.48;3.83;;;11.10;63.30;;;;;;6271269;28;20542;-72
2023/03/08 07:44:36;;;;;;;10.45;4.15;;;11.10;63.20;;;;;;6253285;28;20488;-73
2023/03/08 07:47:37;;;;;;;10.95;4.40;;;11.10;63.40;;;;;;6247526;28;20123;-72
2023/03/08 07:50:38;;;;;;;10.25;4.38;;;11.00;63.40;;;;;;6244457;28;20037;-72
2023/03/08 07:53:39;;;;;;;10.85;4.75;;;11.20;63.90;;;;;;6246091;28;20030;-72
2023/03/08 07:56:40;;;;;;;12.65;4.45;;;11.30;63.90;;;;;;6228482;28;20044;-71
2023/03/08 07:59:41;;;;;;;9.90;4.65;;;11.30;63.80;;;;;;6245889;28;20486;-72
2023/03/08 08:02:42;;;;;;;13.48;5.05;;;11.30;63.90;;;;;;6244611;28;20045;-72
2023/03/08 08:05:43;;;;;;;10.10;5.30;;;11.30;64.00;;;;;;6245885;28;20022;-72
2023/03/08 08:08:45;;;;;;;10.52;4.22;;;11.40;63.90;;;;;;6228318;28;20113;-73
2023/03/08 08:11:46;;;;;;;11.50;4.32;;;11.40;63.90;;;;;;6227707;28;20029;-72
2023/03/08 08:14:47;;;;;;;8.75;3.88;;;11.40;63.70;;;;;;6246104;28;20040;-74
2023/03/08 08:17:48;;;;;;;8.80;4.68;;;11.40;63.70;;;;;;6244397;28;20073;-73
2023/03/08 08:20:49;;;;;;;12.95;4.78;;;11.50;63.60;;;;;;6227499;28;20120;-72
2023/03/08 08:23:50;;;;;;;7.63;4.32;;;11.40;63.50;;;;;;6264874;28;20029;-72
2023/03/08 08:26:51;;;;;;;11.07;4.20;;;11.50;63.70;;;;;;6251806;28;20454;-73
2023/03/08 08:29:52;;;;;;;16.65;4.63;;;11.50;63.50;;;;;;6269823;28;20112;-72
2023/03/08 08:32:53;;;;;;;17.48;4.57;;;11.50;63.60;;;;;;6270036;28;20052;-72
2023/03/08 08:35:54;;;;;;;10.52;4.38;;;11.60;63.50;;;;;;6252358;28;20431;-73
2023/03/08 08:38:55;;;;;;;9.43;4.45;;;11.60;63.50;;;;;;6269880;28;20449;-74
2023/03/08 08:41:56;;;;;;;11.90;4.38;;;11.60;63.60;;;;;;6235082;28;20040;-72
2023/03/08 08:44:57;;;;;;;7.13;3.40;;;11.70;63.60;;;;;;6226753;28;20121;-74
2023/03/08 08:47:58;;;;;;;8.38;3.55;;;11.70;63.60;;;;;;6228529;28;20509;-72
2023/03/08 08:51:00;;;;;;;7.60;4.22;;;11.70;64.20;;;;;;6263285;28;20017;-73
2023/03/08 08:54:01;;;;;;;11.50;4.50;;;11.80;63.40;;;;;;6256932;28;20102;-73
2023/03/08 08:57:02;;;;;;;14.68;3.55;;;11.80;63.30;;;;;;6250237;28;20025;-73
2023/03/08 09:00:07;;;;;;;8.38;4.25;;;11.80;63.30;;;;;;6245916;28;20189;-74
2023/03/08 09:03:08;;;;;;;12.80;4.68;;;11.90;63.20;;;;;;6244630;28;20037;-73
2023/03/08 09:06:09;;;;;;;12.20;4.53;;;12.00;63.10;;;;;;6244616;28;20127;-74
2023/03/08 09:09:10;;;;;;;12.73;4.78;;;12.00;62.90;;;;;;6244212;28;20021;-73
2023/03/08 09:12:11;;;;;;;10.57;4.43;;;12.00;62.90;;;;;;6226903;28;20068;-73
2023/03/08 09:15:12;;;;;;;10.55;3.95;;;12.00;63.10;;;;;;6244413;28;20026;-72
2023/03/08 09:18:13;;;;;;;11.02;4.47;;;12.00;63.00;;;;;;6241491;28;20362;-73
2023/03/08 09:21:15;;;;;;;6.32;3.88;;;12.00;63.10;;;;;;6243702;28;20045;-74
2023/03/08 09:24:16;;;;;;;10.20;4.05;;;12.10;63.10;;;;;;6243976;28;20124;-72
2023/03/08 09:27:17;;;;;;;16.30;4.15;;;12.20;62.90;;;;;;6243456;28;20025;-70
2023/03/08 09:30:18;;;;;;;13.23;4.68;;;12.20;62.90;;;;;;6225810;28;20041;-76
2023/03/08 09:33:19;;;;;;;13.38;4.05;;;12.40;63.00;;;;;;6243512;28;20110;-72
2023/03/08 09:36:20;;;;;;;8.30;4.05;;;12.50;62.70;;;;;;6225116;28;20033;-73
2023/03/08 09:39:21;;;;;;;10.02;4.18;;;12.60;63.30;;;;;;6224253;28;20456;-72
2023/03/08 09:42:26;;;;;;;7.10;3.65;;;12.60;62.40;;;;;;6242813;28;20113;-72
2023/03/08 09:45:28;;;;;;;9.52;4.05;;;12.70;62.40;;;;;;6242915;28;20025;-73
2023/03/08 09:48:30;;;;;;;12.45;5.78;;;12.80;62.10;;;;;;6224124;28;20036;-72
2023/03/08 09:51:37;;;;;;;6.82;3.42;;;12.90;62.00;;;;;;6224816;28;20033;-73
2023/03/08 09:54:39;;;;;;;8.98;3.63;;;13.00;61.80;;;;;;6224681;28;20191;-74
2023/03/08 09:57:51;;;;;;;11.88;3.97;;;13.10;61.60;;;;;;6243152;28;20414;-73
2023/03/08 10:01:00;;;;;;;7.63;3.83;;;13.20;61.40;;;;;;6226051;28;20056;-72
2023/03/08 10:04:28;;;;;;;9.52;4.28;;;13.40;61.40;;;;;;6243182;28;20111;-72
2023/03/08 10:08:06;;;;;;;11.60;5.43;;;13.60;61.00;;;;;;6225127;28;20038;-73
2023/03/08 10:11:35;;;;;;;11.05;6.30;;;13.80;60.60;;;;;;6209075;28;20453;-72
2023/03/08 10:14:51;;;;;;;12.33;5.40;;;14.00;60.20;;;;;;6248399;28;20104;-73
2023/03/08 10:17:56;;;;;;;10.20;4.95;;;14.20;60.10;;;;;;6245678;28;20069;-73
2023/03/08 10:21:00;;;;;;;12.65;4.72;;;14.30;59.90;;;;;;6224318;28;20057;-74
2023/03/08 10:24:25;;;;;;;10.90;5.15;;;14.40;59.80;;;;;;6242169;28;20033;-72
2023/03/08 10:27:31;;;;;;;8.98;4.38;;;14.50;59.70;;;;;;6242975;28;20021;-73
2023/03/08 10:30:35;;;;;;;11.15;6.28;;;14.60;59.50;;;;;;6242785;28;20029;-74
2023/03/08 10:33:36;;;;;;;16.08;6.07;;;14.80;59.50;;;;;;6208762;28;20491;-73
2023/03/08 10:36:46;;;;;;;15.13;6.45;;;15.00;59.30;;;;;;6241219;28;20100;-73
2023/03/08 10:39:53;;;;;;;11.77;5.30;;;15.10;59.00;;;;;;6224588;28;20389;-72
2023/03/08 10:43:04;;;;;;;8.18;4.35;;;15.20;58.90;;;;;;6224339;28;20044;-71
2023/03/08 10:46:11;;;;;;;13.02;4.97;;;15.30;58.60;;;;;;6242206;28;20087;-71
2023/03/08 10:49:17;;;;;;;8.35;4.90;;;15.30;58.60;;;;;;6223756;28;20029;-73
2023/03/08 10:52:26;;;;;;;10.25;3.95;;;15.40;58.60;;;;;;6246824;28;20119;-73
2023/03/08 10:55:29;;;;;;;6.85;3.60;;;15.40;58.50;;;;;;6213372;28;20036;-73
2023/03/08 10:58:36;;;;;;;13.68;3.83;;;15.50;58.30;;;;;;6238374;28;20040;-71
2023/03/08 11:01:55;;;;;;;14.18;4.43;;;15.50;58.10;;;;;;6256211;28;20489;-74
2023/03/08 11:04:57;;;;;;;6.55;3.88;;;15.40;57.80;;;;;;6247813;28;20025;-72
2023/03/08 11:07:59;;;;;;;20.38;5.13;;;15.30;57.90;;;;;;6213560;28;20128;-73
2023/03/08 11:11:05;;;;;;;14.70;3.90;;;15.40;58.10;;;;;;6255473;28;20143;-72
2023/03/08 11:14:10;;;;;;;8.02;4.32;;;15.40;58.10;;;;;;6273868;28;20024;-72
2023/03/08 11:17:19;;;;;;;12.20;4.85;;;15.40;58.00;;;;;;6281315;28;20117;-73
2023/03/08 11:20:44;;;;;;;8.93;4.20;;;15.40;57.80;;;;;;6282374;28;20032;-73
2023/03/08 11:24:16;;;;;;;17.00;6.15;;;15.30;57.70;;;;;;6255881;28;20025;-72
2023/03/08 11:27:34;;;;;;;16.27;5.32;;;15.20;57.80;;;;;;6237515;28;20033;-72
2023/03/08 11:30:50;;;;;;;27.20;9.32;;;15.00;58.10;;;;;;6253518;28;20179;-73
2023/03/08 11:33:54;;;;;;;19.50;6.45;;;14.90;58.20;;;;;;6226992;28;20127;-73
2023/03/08 11:37:01;;;;;;;17.23;5.70;;;14.80;58.40;;;;;;6245931;28;20091;-73
2023/03/08 11:40:19;;;;;;;13.70;5.70;;;14.80;58.40;;;;;;6228845;28;20029;-73
2023/03/08 11:43:23;;;;;;;11.00;5.20;;;14.70;58.20;;;;;;6247121;28;20021;-73
2023/03/08 11:46:38;;;;;;;16.90;6.10;;;14.60;58.40;;;;;;6228468;28;20316;-73
2023/03/08 11:50:07;;;;;;;17.05;6.05;;;14.50;58.40;;;;;;6228459;28;20052;-72
2023/03/08 11:53:46;;;;;;;21.75;8.80;;;14.50;58.50;;;;;;6228234;28;20419;-73
2023/03/08 11:56:53;;;;;;;16.20;5.70;;;14.40;58.70;;;;;;6228271;28;20045;-74
2023/03/08 12:00:11;;;;;;;17.53;6.87;;;14.30;58.90;;;;;;6229161;28;20037;-72
2023/03/08 12:03:20;;;;;;;12.07;5.22;;;14.30;59.00;;;;;;6227921;28;20068;-74
2023/03/08 12:06:37;;;;;;;9.85;5.00;;;14.30;59.20;;;;;;6227934;28;20442;-74
2023/03/08 12:10:07;;;;;;;11.68;5.85;;;14.30;59.20;;;;;;6227967;28;20080;-74
2023/03/08 12:13:17;;;;;;;9.35;4.50;;;14.30;59.20;;;;;;6168717;28;20043;-72
2023/03/08 12:16:27;;;;;;;12.75;5.68;;;14.30;59.20;;;;;;6152718;28;20523;-73
2023/03/08 12:19:36;;;;;;;10.20;4.50;;;14.30;59.30;;;;;;6168176;28;20043;-72
2023/03/08 12:22:49;;;;;;;13.20;5.63;;;14.30;59.30;;;;;;6152452;28;20037;-73
2023/03/08 12:26:15;;;;;;;13.82;5.75;;;14.30;59.30;;;;;;6169039;28;20039;-73
2023/03/08 12:29:29;;;;;;;8.85;5.18;;;14.30;59.30;;;;;;6169172;28;20039;-72
2023/03/08 12:32:31;;;;;;;8.32;4.18;;;14.30;59.40;;;;;;6169048;28;20062;-71
2023/03/08 12:35:34;;;;;;;12.68;5.30;;;14.20;59.70;;;;;;6152587;28;20038;-72
2023/03/08 12:38:43;;;;;;;11.43;5.25;;;14.10;60.00;;;;;;6168639;28;20038;-73
2023/03/08 12:42:00;;;;;;;13.65;5.68;;;14.00;60.20;;;;;;6168683;28;20112;-74
2023/03/08 12:45:05;;;;;;;17.73;6.65;;;14.00;60.40;;;;;;6168236;28;20043;-72
2023/03/08 12:48:07;;;;;;;11.68;5.80;;;14.00;60.60;;;;;;6151961;28;20063;-72
2023/03/08 12:51:15;;;;;;;14.15;6.03;;;14.00;60.90;;;;;;6240053;28;20464;-71
2023/03/08 12:54:22;;;;;;;17.48;6.13;;;14.00;61.10;;;;;;6244608;28;20149;-74
2023/03/08 12:57:30;;;;;;;15.38;6.60;;;14.10;61.40;;;;;;6226137;28;20041;-73
2023/03/08 13:00:36;;;;;;;15.82;6.45;;;14.10;61.50;;;;;;6245193;28;20029;-73
2023/03/08 13:03:40;;;;;;;11.40;5.82;;;14.10;61.50;;;;;;6251856;28;20071;-75
2023/03/08 13:07:17;;;;;;;9.90;5.30;;;14.20;61.70;;;;;;6250782;28;20453;-72
2023/03/08 13:10:29;;;;;;;16.05;6.93;;;14.20;61.80;;;;;;6250396;28;20029;-74
2023/03/08 13:13:39;;;;;;;15.98;6.47;;;14.20;61.90;;;;;;6267389;28;20098;-72
2023/03/08 13:16:40;;;;;;;14.57;4.93;;;14.30;62.00;;;;;;6268170;28;20469;-72
2023/03/08 13:19:42;;;;;;;12.20;5.25;;;14.20;61.70;;;;;;6224126;28;20044;-72
2023/03/08 13:22:58;;;;;;;13.88;5.78;;;14.30;61.90;;;;;;6202158;28;20030;-73
2023/03/08 13:26:08;;;;;;;12.38;5.20;;;14.30;61.90;;;;;;6207980;28;20405;-73
2023/03/08 13:29:18;;;;;;;10.02;5.30;;;14.30;61.90;;;;;;6245381;28;20114;-73
2023/03/08 13:32:22;;;;;;;12.00;5.30;;;14.20;61.90;;;;;;6227817;28;20393;-72
2023/03/08 13:35:23;;;;;;;12.80;5.28;;;14.20;62.00;;;;;;6213424;28;20029;-72
2023/03/08 13:38:31;;;;;;;8.93;4.57;;;14.30;62.20;;;;;;6243704;28;20049;-73
2023/03/08 13:41:44;;;;;;;9.13;4.85;;;14.30;62.20;;;;;;6225959;28;20095;-71
2023/03/08 13:44:45;;;;;;;9.57;5.25;;;14.30;62.40;;;;;;6246420;28;20150;-72
2023/03/08 13:47:47;;;;;;;16.17;5.88;;;14.30;62.50;;;;;;6267331;28;20025;-75
2023/03/08 13:50:50;;;;;;;17.65;5.85;;;14.30;62.80;;;;;;6255538;28;20033;-72
2023/03/08 13:53:52;;;;;;;10.15;4.90;;;14.40;62.80;;;;;;6226688;28;20106;-71
2023/03/08 13:56:54;;;;;;;13.00;5.60;;;14.50;62.70;;;;;;6225386;28;20037;-72
2023/03/08 13:59:58;;;;;;;16.13;5.43;;;14.40;62.70;;;;;;6233163;28;20021;-73
2023/03/08 14:03:02;;;;;;;17.00;7.38;;;14.40;62.90;;;;;;6268254;28;20025;-73
2023/03/08 14:06:15;;;;;;;11.07;5.13;;;14.40;63.20;;;;;;6249703;28;20048;-73
2023/03/08 14:09:18;;;;;;;12.73;6.70;;;14.40;63.20;;;;;;6232990;28;20037;-72
2023/03/08 14:12:25;;;;;;;17.98;6.55;;;14.40;63.10;;;;;;6249321;28;20132;-74
2023/03/08 14:15:26;;;;;;;11.85;4.68;;;14.30;63.10;;;;;;6267580;28;20474;-73
2023/03/08 14:18:36;;;;;;;8.57;4.57;;;14.30;63.50;;;;;;6259299;28;20101;-72
2023/03/08 14:21:46;;;;;;;5.75;2.88;;;14.20;63.70;;;;;;6241195;28;20041;-73
2023/03/08 14:24:54;;;;;;;11.60;4.63;;;14.10;63.80;;;;;;6242150;28;20032;-71
2023/03/08 14:27:56;;;;;;;8.18;3.35;;;14.10;63.90;;;;;;6247139;28;20025;-73
2023/03/08 14:30:57;;;;;;;6.68;2.75;;;14.20;64.00;;;;;;6229018;28;20128;-72
2023/03/08 14:34:01;;;;;;;8.77;4.05;;;14.20;63.90;;;;;;6247415;28;20035;-72
2023/03/08 14:37:10;;;;;;;7.18;3.45;;;14.30;63.70;;;;;;6228430;28;20063;-72
2023/03/08 14:40:44;;;;;;;12.15;4.03;;;14.40;63.70;;;;;;6245520;28;20060;-71
2023/03/08 14:43:49;;;;;;;9.90;4.00;;;14.40;63.30;;;;;;6229929;28;20037;-72
2023/03/08 14:46:57;;;;;;;11.25;5.00;;;14.40;63.10;;;;;;6247785;28;20366;-73
2023/03/08 14:50:02;;;;;;;12.07;4.50;;;14.40;63.30;;;;;;6223094;28;20455;-72
2023/03/08 14:53:36;;;;;;;11.00;4.70;;;14.40;63.40;;;;;;6206776;28;20124;-71
2023/03/08 14:56:37;;;;;;;8.95;4.35;;;14.40;63.50;;;;;;6229680;28;20124;-73
2023/03/08 14:59:40;;;;;;;8.55;3.80;;;14.40;63.50;;;;;;6273061;28;20378;-74
2023/03/08 15:02:42;;;;;;;10.07;4.60;;;14.30;63.60;;;;;;6282573;28;20029;-72
2023/03/08 15:05:45;;;;;;;14.32;4.68;;;14.40;63.70;;;;;;6268702;28;20097;-72
2023/03/08 15:08:47;;;;;;;9.48;4.00;;;14.40;63.80;;;;;;6275659;28;20335;-72
2023/03/08 15:11:51;;;;;;;17.23;5.10;;;14.40;63.80;;;;;;6275493;28;20056;-72
2023/03/08 15:14:52;;;;;;;15.77;7.00;;;14.40;63.70;;;;;;6236252;28;20106;-72
2023/03/08 15:17:53;;;;;;;21.35;9.43;;;14.50;63.70;;;;;;6232446;28;20048;-73
2023/03/08 15:20:54;;;;;;;33.78;11.50;;;14.60;63.70;;;;;;6246026;28;20075;-74
2023/03/08 15:23:56;;;;;;;35.95;10.52;;;14.60;63.60;;;;;;6245688;28;20037;-72
2023/03/08 15:26:57;;;;;;;24.13;8.20;;;14.60;63.50;;;;;;6227767;28;20064;-73
2023/03/08 15:29:59;;;;;;;17.95;6.90;;;14.60;63.50;;;;;;6227794;28;20128;-72
2023/03/08 15:33:01;;;;;;;13.02;4.63;;;14.70;63.60;;;;;;6227922;28;20068;-72
2023/03/08 15:36:02;;;;;;;16.65;5.10;;;14.70;63.50;;;;;;6227337;28;20074;-74
2023/03/08 15:39:03;;;;;;;12.98;5.30;;;14.70;63.40;;;;;;6227773;28;20052;-73
2023/03/08 15:42:04;;;;;;;14.18;5.40;;;14.70;63.30;;;;;;6228622;28;20030;-71
2023/03/08 15:45:06;;;;;;;15.85;5.20;;;14.70;63.40;;;;;;6230188;28;20030;-72
2023/03/08 15:48:14;;;;;;;19.80;4.53;;;14.80;63.50;;;;;;6228661;28;20372;-73
2023/03/08 15:51:18;;;;;;;18.83;4.35;;;14.60;63.60;;;;;;6245997;28;20427;-73
2023/03/08 15:54:19;;;;;;;11.60;4.60;;;14.60;63.80;;;;;;6271732;28;20133;-74